หน้าหลัก
METAR-TAF:

METAR-TAF

ท่าอากาศยาน :

Kimmirut, นูนาวุต, แคนาดา

ละติจูด: 62-51N, ลองจิจูด: 069-53W, ความสูง: 53 ม.

การสังเกตสภาพอากาศปัจจุบัน

รายงานได้ทำขึ้นเมื่อ 23 นาทีที่แล้ว ณ เวลา 16:00 UTC
ลม 15 นอตจากตะวันตก
อุณหภูมิ -15°C
ความชื้น 71%
ความกดอากาศ 994 hPa
ทัศนวิสัย: 9.7 กม.
มีเมฆกระจายเป็นบางส่วนที่ความสูง 1400 ฟุต
มีเมฆเป็นส่วนมากเว้นเป็นระยะที่ความสูง 3500 ฟุต
มีเมฆเป็นส่วนมากเว้นเป็นระยะที่ความสูง 4100 ฟุต
หิมะตกเล็กน้อย, หิมะล่องลอยระดับต่ำ

METAR: CYLC 021600Z 28015KT 6SM -SN DRSN SCT014 BKN035 BKN041 M15/M19 A2934 RMK ST3SC2SC2 SLP942

เวลา: 11:23 (16:23 UTC)


TAF: หายไป

สังเกตการณ์สภาพอากาศและพยากรณ์อากาศของสนามบินมากกว่า 4000 แห่ง (รายงาน METAR และ TAF).

สถานีที่ดูได้จะแสดงไว้ด้วยจุดสีเหลืองและสีแดงบนแผนที่.

เลื่อนเมาส์ไปเหนือจุดเพื่อดูชื่อสถานี.

แล้วคลิกเพื่อดูสังเกตการณ์และการพยากรณ์สภาพอากาศ.

ในการเปลี่ยนแผนที่: คลิกที่ปุ่มสีเขียวที่มีกากบาทสีดำเพื่อซูมเข้า; ที่ปุ่มสีเขียวที่มีขีดเพื่อซูมออก; หรือที่ลูกศรสีเขียวเพื่อไปยังแผนที่ที่อยู่ติดกัน.


METAR-TAF: